sensor_id;sensor_type;location;lat;lon;timestamp;temperature;humidity
74661;SHT31;63191;39.566;2.654;2023-04-03T00:01:00;13.97;63.22
74661;SHT31;63191;39.566;2.654;2023-04-03T00:03:27;13.97;63.22
74661;SHT31;63191;39.566;2.654;2023-04-03T00:05:53;13.94;63.33
74661;SHT31;63191;39.566;2.654;2023-04-03T00:08:19;13.95;63.39
74661;SHT31;63191;39.566;2.654;2023-04-03T00:10:45;13.95;63.43
74661;SHT31;63191;39.566;2.654;2023-04-03T00:13:11;13.95;63.53
74661;SHT31;63191;39.566;2.654;2023-04-03T00:15:37;13.94;63.63
74661;SHT31;63191;39.566;2.654;2023-04-03T00:18:04;13.94;63.68
74661;SHT31;63191;39.566;2.654;2023-04-03T00:20:31;13.93;63.72
74661;SHT31;63191;39.566;2.654;2023-04-03T00:22:58;13.91;63.88
74661;SHT31;63191;39.566;2.654;2023-04-03T00:25:24;13.91;64.06
74661;SHT31;63191;39.566;2.654;2023-04-03T00:27:50;13.92;64.18
74661;SHT31;63191;39.566;2.654;2023-04-03T00:30:16;13.94;64.23
74661;SHT31;63191;39.566;2.654;2023-04-03T00:32:45;13.96;64.28
74661;SHT31;63191;39.566;2.654;2023-04-03T00:35:12;13.96;64.28
74661;SHT31;63191;39.566;2.654;2023-04-03T00:37:40;13.95;64.29
74661;SHT31;63191;39.566;2.654;2023-04-03T00:40:09;13.94;64.35
74661;SHT31;63191;39.566;2.654;2023-04-03T00:42:36;13.90;64.45
74661;SHT31;63191;39.566;2.654;2023-04-03T00:47:28;13.86;64.59
74661;SHT31;63191;39.566;2.654;2023-04-03T00:49:55;13.83;64.69
74661;SHT31;63191;39.566;2.654;2023-04-03T00:52:26;13.79;64.70
74661;SHT31;63191;39.566;2.654;2023-04-03T00:54:57;13.74;64.80
74661;SHT31;63191;39.566;2.654;2023-04-03T00:57:28;13.70;64.92
74661;SHT31;63191;39.566;2.654;2023-04-03T01:00:00;13.65;65.10
74661;SHT31;63191;39.566;2.654;2023-04-03T01:02:32;13.60;65.28
74661;SHT31;63191;39.566;2.654;2023-04-03T01:04:58;13.56;65.48
74661;SHT31;63191;39.566;2.654;2023-04-03T01:07:25;13.53;65.63
74661;SHT31;63191;39.566;2.654;2023-04-03T01:09:59;13.50;65.94
74661;SHT31;63191;39.566;2.654;2023-04-03T01:12:33;13.52;66.12
74661;SHT31;63191;39.566;2.654;2023-04-03T01:15:09;13.53;66.14
74661;SHT31;63191;39.566;2.654;2023-04-03T01:17:40;13.53;66.20
74661;SHT31;63191;39.566;2.654;2023-04-03T01:20:30;13.55;66.31
74661;SHT31;63191;39.566;2.654;2023-04-03T01:25:36;13.56;66.55
74661;SHT31;63191;39.566;2.654;2023-04-03T01:28:18;13.57;66.62
74661;SHT31;63191;39.566;2.654;2023-04-03T01:30:56;13.56;66.63
74661;SHT31;63191;39.566;2.654;2023-04-03T01:33:45;13.54;66.59
74661;SHT31;63191;39.566;2.654;2023-04-03T01:36:16;13.51;66.60
74661;SHT31;63191;39.566;2.654;2023-04-03T01:38:46;13.47;66.62
74661;SHT31;63191;39.566;2.654;2023-04-03T01:41:15;13.42;66.53
74661;SHT31;63191;39.566;2.654;2023-04-03T01:43:41;13.36;66.50
74661;SHT31;63191;39.566;2.654;2023-04-03T01:46:07;13.30;66.53
74661;SHT31;63191;39.566;2.654;2023-04-03T01:48:33;13.24;66.61
74661;SHT31;63191;39.566;2.654;2023-04-03T01:50:59;13.18;66.76
74661;SHT31;63191;39.566;2.654;2023-04-03T01:53:33;13.11;66.94
74661;SHT31;63191;39.566;2.654;2023-04-03T01:55:59;13.05;67.08
74661;SHT31;63191;39.566;2.654;2023-04-03T01:58:25;12.99;67.17
74661;SHT31;63191;39.566;2.654;2023-04-03T02:00:51;12.93;67.28
74661;SHT31;63191;39.566;2.654;2023-04-03T02:03:17;12.88;67.36
74661;SHT31;63191;39.566;2.654;2023-04-03T02:05:44;12.87;67.49
74661;SHT31;63191;39.566;2.654;2023-04-03T02:08:10;12.84;67.69
74661;SHT31;63191;39.566;2.654;2023-04-03T02:10:36;12.84;67.87
74661;SHT31;63191;39.566;2.654;2023-04-03T02:13:02;12.82;67.98
74661;SHT31;63191;39.566;2.654;2023-04-03T02:15:28;12.81;68.13
74661;SHT31;63191;39.566;2.654;2023-04-03T02:17:54;12.79;68.22
74661;SHT31;63191;39.566;2.654;2023-04-03T02:20:20;12.76;68.28
74661;SHT31;63191;39.566;2.654;2023-04-03T02:22:45;12.74;68.32
74661;SHT31;63191;39.566;2.654;2023-04-03T02:25:11;12.71;68.35
74661;SHT31;63191;39.566;2.654;2023-04-03T02:27:38;12.68;68.40
74661;SHT31;63191;39.566;2.654;2023-04-03T02:30:04;12.64;68.47
74661;SHT31;63191;39.566;2.654;2023-04-03T02:32:34;12.61;68.55
74661;SHT31;63191;39.566;2.654;2023-04-03T02:35:00;12.57;68.63
74661;SHT31;63191;39.566;2.654;2023-04-03T02:37:25;12.53;68.78
74661;SHT31;63191;39.566;2.654;2023-04-03T02:39:51;12.50;68.93
74661;SHT31;63191;39.566;2.654;2023-04-03T02:42:17;12.48;69.05
74661;SHT31;63191;39.566;2.654;2023-04-03T02:44:44;12.48;69.09
74661;SHT31;63191;39.566;2.654;2023-04-03T02:47:10;12.47;69.20
74661;SHT31;63191;39.566;2.654;2023-04-03T02:49:37;12.46;69.37
74661;SHT31;63191;39.566;2.654;2023-04-03T02:52:03;12.44;69.48
74661;SHT31;63191;39.566;2.654;2023-04-03T02:54:28;12.43;69.58
74661;SHT31;63191;39.566;2.654;2023-04-03T02:56:56;12.41;69.62
74661;SHT31;63191;39.566;2.654;2023-04-03T02:59:22;12.39;69.76
74661;SHT31;63191;39.566;2.654;2023-04-03T03:01:48;12.37;69.88
74661;SHT31;63191;39.566;2.654;2023-04-03T03:04:14;12.35;69.90
74661;SHT31;63191;39.566;2.654;2023-04-03T03:06:40;12.32;69.98
74661;SHT31;63191;39.566;2.654;2023-04-03T03:09:06;12.32;70.07
74661;SHT31;63191;39.566;2.654;2023-04-03T03:11:32;12.33;70.08
74661;SHT31;63191;39.566;2.654;2023-04-03T03:13:57;12.32;70.06
74661;SHT31;63191;39.566;2.654;2023-04-03T03:16:23;12.31;70.09
74661;SHT31;63191;39.566;2.654;2023-04-03T03:18:49;12.29;70.16
74661;SHT31;63191;39.566;2.654;2023-04-03T03:21:15;12.27;70.21
74661;SHT31;63191;39.566;2.654;2023-04-03T03:23:40;12.24;70.30
74661;SHT31;63191;39.566;2.654;2023-04-03T03:26:07;12.22;70.39
74661;SHT31;63191;39.566;2.654;2023-04-03T03:28:35;12.20;70.50
74661;SHT31;63191;39.566;2.654;2023-04-03T03:31:02;12.18;70.58
74661;SHT31;63191;39.566;2.654;2023-04-03T03:33:28;12.16;70.65
74661;SHT31;63191;39.566;2.654;2023-04-03T03:35:54;12.15;70.70
74661;SHT31;63191;39.566;2.654;2023-04-03T03:38:21;12.15;70.70
74661;SHT31;63191;39.566;2.654;2023-04-03T03:40:48;12.15;70.70
74661;SHT31;63191;39.566;2.654;2023-04-03T03:43:16;12.16;70.81
74661;SHT31;63191;39.566;2.654;2023-04-03T03:45:42;12.19;71.00
74661;SHT31;63191;39.566;2.654;2023-04-03T03:48:08;12.22;71.17
74661;SHT31;63191;39.566;2.654;2023-04-03T03:50:34;12.24;71.20
74661;SHT31;63191;39.566;2.654;2023-04-03T03:53:00;12.26;71.20
74661;SHT31;63191;39.566;2.654;2023-04-03T03:55:27;12.26;71.20
74661;SHT31;63191;39.566;2.654;2023-04-03T03:57:52;12.26;71.20
74661;SHT31;63191;39.566;2.654;2023-04-03T04:00:18;12.25;71.18
74661;SHT31;63191;39.566;2.654;2023-04-03T04:02:45;12.26;71.20
74661;SHT31;63191;39.566;2.654;2023-04-03T04:05:11;12.24;71.26
74661;SHT31;63191;39.566;2.654;2023-04-03T04:07:36;12.25;71.26
74661;SHT31;63191;39.566;2.654;2023-04-03T04:10:02;12.25;71.26
74661;SHT31;63191;39.566;2.654;2023-04-03T04:12:29;12.25;71.30
74661;SHT31;63191;39.566;2.654;2023-04-03T04:14:54;12.25;71.30
74661;SHT31;63191;39.566;2.654;2023-04-03T04:17:20;12.27;71.28
74661;SHT31;63191;39.566;2.654;2023-04-03T04:19:46;12.30;71.30
74661;SHT31;63191;39.566;2.654;2023-04-03T04:22:12;12.32;71.36
74661;SHT31;63191;39.566;2.654;2023-04-03T04:24:38;12.33;71.41
74661;SHT31;63191;39.566;2.654;2023-04-03T04:27:03;12.35;71.45
74661;SHT31;63191;39.566;2.654;2023-04-03T04:29:29;12.35;71.45
74661;SHT31;63191;39.566;2.654;2023-04-03T04:32:00;12.34;71.41
74661;SHT31;63191;39.566;2.654;2023-04-03T04:34:26;12.33;71.40
74661;SHT31;63191;39.566;2.654;2023-04-03T04:36:52;12.31;71.39
74661;SHT31;63191;39.566;2.654;2023-04-03T04:39:17;12.29;71.40
74661;SHT31;63191;39.566;2.654;2023-04-03T04:41:43;12.26;71.40
74661;SHT31;63191;39.566;2.654;2023-04-03T04:44:09;12.22;71.32
74661;SHT31;63191;39.566;2.654;2023-04-03T04:46:34;12.18;71.33
74661;SHT31;63191;39.566;2.654;2023-04-03T04:49:00;12.14;71.38
74661;SHT31;63191;39.566;2.654;2023-04-03T04:51:26;12.12;71.34
74661;SHT31;63191;39.566;2.654;2023-04-03T04:53:51;12.09;71.30
74661;SHT31;63191;39.566;2.654;2023-04-03T04:56:17;12.06;71.30
74661;SHT31;63191;39.566;2.654;2023-04-03T04:58:43;12.03;71.38
74661;SHT31;63191;39.566;2.654;2023-04-03T05:01:09;11.98;71.40
74661;SHT31;63191;39.566;2.654;2023-04-03T05:03:36;11.94;71.48
74661;SHT31;63191;39.566;2.654;2023-04-03T05:06:02;11.90;71.60
74661;SHT31;63191;39.566;2.654;2023-04-03T05:08:28;11.84;71.67
74661;SHT31;63191;39.566;2.654;2023-04-03T05:10:54;11.80;71.79
74661;SHT31;63191;39.566;2.654;2023-04-03T05:13:21;11.75;71.87
74661;SHT31;63191;39.566;2.654;2023-04-03T05:15:47;11.73;71.91
74661;SHT31;63191;39.566;2.654;2023-04-03T05:18:13;11.71;72.00
74661;SHT31;63191;39.566;2.654;2023-04-03T05:20:38;11.70;72.07
74661;SHT31;63191;39.566;2.654;2023-04-03T05:23:06;11.69;72.18
74661;SHT31;63191;39.566;2.654;2023-04-03T05:25:32;11.69;72.36
74661;SHT31;63191;39.566;2.654;2023-04-03T05:27:59;11.70;72.53
74661;SHT31;63191;39.566;2.654;2023-04-03T05:30:24;11.69;72.60
74661;SHT31;63191;39.566;2.654;2023-04-03T05:32:50;11.69;72.65
74661;SHT31;63191;39.566;2.654;2023-04-03T05:35:16;11.70;72.70
74661;SHT31;63191;39.566;2.654;2023-04-03T05:37:42;11.69;72.73
74661;SHT31;63191;39.566;2.654;2023-04-03T05:40:07;11.71;72.79
74661;SHT31;63191;39.566;2.654;2023-04-03T05:42:34;11.74;72.89
74661;SHT31;63191;39.566;2.654;2023-04-03T05:45:00;11.78;72.89
74661;SHT31;63191;39.566;2.654;2023-04-03T05:47:25;11.85;72.81
74661;SHT31;63191;39.566;2.654;2023-04-03T05:49:51;11.91;72.77
74661;SHT31;63191;39.566;2.654;2023-04-03T05:54:55;12.09;72.65
74661;SHT31;63191;39.566;2.654;2023-04-03T05:57:22;12.20;72.57
74661;SHT31;63191;39.566;2.654;2023-04-03T05:59:48;12.39;72.33
74661;SHT31;63191;39.566;2.654;2023-04-03T06:02:16;12.66;71.96
74661;SHT31;63191;39.566;2.654;2023-04-03T06:04:45;12.87;71.67
74661;SHT31;63191;39.566;2.654;2023-04-03T06:07:14;13.20;71.12
74661;SHT31;63191;39.566;2.654;2023-04-03T06:09:44;13.53;70.63
74661;SHT31;63191;39.566;2.654;2023-04-03T06:12:12;14.04;70.02
74661;SHT31;63191;39.566;2.654;2023-04-03T06:14:38;14.76;68.93
74661;SHT31;63191;39.566;2.654;2023-04-03T06:17:04;15.48;67.77
74661;SHT31;63191;39.566;2.654;2023-04-03T06:19:31;16.19;66.49
74661;SHT31;63191;39.566;2.654;2023-04-03T06:21:57;16.72;65.35
74661;SHT31;63191;39.566;2.654;2023-04-03T06:24:23;17.08;64.42
74661;SHT31;63191;39.566;2.654;2023-04-03T06:26:50;17.59;63.20
74661;SHT31;63191;39.566;2.654;2023-04-03T06:29:17;18.31;61.47
74661;SHT31;63191;39.566;2.654;2023-04-03T06:31:44;19.05;59.78
74661;SHT31;63191;39.566;2.654;2023-04-03T06:34:12;19.75;58.19
74661;SHT31;63191;39.566;2.654;2023-04-03T06:36:40;20.49;56.51
74661;SHT31;63191;39.566;2.654;2023-04-03T06:39:07;21.23;55.20
74661;SHT31;63191;39.566;2.654;2023-04-03T06:41:42;22.20;53.42
74661;SHT31;63191;39.566;2.654;2023-04-03T06:44:12;23.14;51.70
74661;SHT31;63191;39.566;2.654;2023-04-03T06:46:40;23.88;49.55
74661;SHT31;63191;39.566;2.654;2023-04-03T06:49:07;23.99;47.88
74661;SHT31;63191;39.566;2.654;2023-04-03T06:51:33;23.61;47.45
74661;SHT31;63191;39.566;2.654;2023-04-03T06:54:00;23.45;47.08
74661;SHT31;63191;39.566;2.654;2023-04-03T06:56:28;23.14;47.09
74661;SHT31;63191;39.566;2.654;2023-04-03T06:58:54;22.98;46.83
74661;SHT31;63191;39.566;2.654;2023-04-03T07:01:26;22.96;46.62
74661;SHT31;63191;39.566;2.654;2023-04-03T07:03:54;24.03;44.82
74661;SHT31;63191;39.566;2.654;2023-04-03T07:06:20;24.65;43.98
74661;SHT31;63191;39.566;2.654;2023-04-03T07:08:46;25.47;43.17
74661;SHT31;63191;39.566;2.654;2023-04-03T07:11:14;26.35;42.07
74661;SHT31;63191;39.566;2.654;2023-04-03T07:13:40;27.09;40.89
74661;SHT31;63191;39.566;2.654;2023-04-03T07:16:06;27.56;40.14
74661;SHT31;63191;39.566;2.654;2023-04-03T07:18:33;28.39;38.94
74661;SHT31;63191;39.566;2.654;2023-04-03T07:20:59;29.08;37.69
74661;SHT31;63191;39.566;2.654;2023-04-03T07:23:26;29.74;36.57
74661;SHT31;63191;39.566;2.654;2023-04-03T07:25:51;30.28;35.38
74661;SHT31;63191;39.566;2.654;2023-04-03T07:28:19;30.75;34.68
74661;SHT31;63191;39.566;2.654;2023-04-03T07:30:48;31.21;34.01
74661;SHT31;63191;39.566;2.654;2023-04-03T07:33:18;31.31;33.37
74661;SHT31;63191;39.566;2.654;2023-04-03T07:35:46;30.42;33.55
74661;SHT31;63191;39.566;2.654;2023-04-03T07:38:12;29.34;34.04
74661;SHT31;63191;39.566;2.654;2023-04-03T07:40:38;28.32;34.49
74661;SHT31;63191;39.566;2.654;2023-04-03T07:43:05;27.42;35.16
74661;SHT31;63191;39.566;2.654;2023-04-03T07:45:31;26.70;35.80
74661;SHT31;63191;39.566;2.654;2023-04-03T07:48:00;25.87;36.35
74661;SHT31;63191;39.566;2.654;2023-04-03T07:50:26;25.15;37.33
74661;SHT31;63191;39.566;2.654;2023-04-03T07:52:52;24.71;37.71
74661;SHT31;63191;39.566;2.654;2023-04-03T07:55:21;24.15;38.48
74661;SHT31;63191;39.566;2.654;2023-04-03T07:57:47;23.70;38.77
74661;SHT31;63191;39.566;2.654;2023-04-03T08:00:13;23.50;38.93
74661;SHT31;63191;39.566;2.654;2023-04-03T08:02:40;23.04;39.48
74661;SHT31;63191;39.566;2.654;2023-04-03T08:05:05;22.58;40.33
74661;SHT31;63191;39.566;2.654;2023-04-03T08:07:32;22.45;40.69
74661;SHT31;63191;39.566;2.654;2023-04-03T08:09:58;22.61;40.36
74661;SHT31;63191;39.566;2.654;2023-04-03T08:12:23;22.37;41.05
74661;SHT31;63191;39.566;2.654;2023-04-03T08:14:49;22.20;41.67
74661;SHT31;63191;39.566;2.654;2023-04-03T08:17:17;22.26;41.72
74661;SHT31;63191;39.566;2.654;2023-04-03T08:19:45;22.49;40.99
74661;SHT31;63191;39.566;2.654;2023-04-03T08:22:12;22.37;41.39
74661;SHT31;63191;39.566;2.654;2023-04-03T08:24:38;22.27;41.92
74661;SHT31;63191;39.566;2.654;2023-04-03T08:27:10;22.36;42.22
74661;SHT31;63191;39.566;2.654;2023-04-03T08:29:35;22.99;41.61
74661;SHT31;63191;39.566;2.654;2023-04-03T08:32:03;23.33;40.71
74661;SHT31;63191;39.566;2.654;2023-04-03T08:34:30;23.06;41.25
74661;SHT31;63191;39.566;2.654;2023-04-03T08:36:59;22.96;41.65
74661;SHT31;63191;39.566;2.654;2023-04-03T08:39:28;23.02;41.53
74661;SHT31;63191;39.566;2.654;2023-04-03T08:41:55;23.40;40.53
74661;SHT31;63191;39.566;2.654;2023-04-03T08:44:47;23.55;40.27
74661;SHT31;63191;39.566;2.654;2023-04-03T08:47:47;22.91;40.71
74661;SHT31;63191;39.566;2.654;2023-04-03T08:50:29;22.37;41.76
74661;SHT31;63191;39.566;2.654;2023-04-03T08:52:59;22.10;42.36
74661;SHT31;63191;39.566;2.654;2023-04-03T08:55:49;22.34;42.22
74661;SHT31;63191;39.566;2.654;2023-04-03T08:58:47;22.72;41.19
74661;SHT31;63191;39.566;2.654;2023-04-03T09:01:33;22.25;41.78
74661;SHT31;63191;39.566;2.654;2023-04-03T09:04:03;21.82;42.68
74661;SHT31;63191;39.566;2.654;2023-04-03T09:06:39;21.57;43.54
74661;SHT31;63191;39.566;2.654;2023-04-03T09:15:02;22.09;42.33
74661;SHT31;63191;39.566;2.654;2023-04-03T09:21:12;21.13;44.97
74661;SHT31;63191;39.566;2.654;2023-04-03T09:23:55;20.94;45.74
74661;SHT31;63191;39.566;2.654;2023-04-03T09:26:41;20.93;45.93
74661;SHT31;63191;39.566;2.654;2023-04-03T09:29:38;21.14;46.12
74661;SHT31;63191;39.566;2.654;2023-04-03T09:34:56;21.18;46.80
74661;SHT31;63191;39.566;2.654;2023-04-03T09:37:33;20.98;47.08
74661;SHT31;63191;39.566;2.654;2023-04-03T09:43:02;20.55;48.30
74661;SHT31;63191;39.566;2.654;2023-04-03T09:45:56;20.32;48.95
74661;SHT31;63191;39.566;2.654;2023-04-03T09:48:57;20.59;49.24
74661;SHT31;63191;39.566;2.654;2023-04-03T09:51:26;21.21;47.94
74661;SHT31;63191;39.566;2.654;2023-04-03T09:57:07;21.24;47.90
74661;SHT31;63191;39.566;2.654;2023-04-03T09:59:38;21.17;47.84
74661;SHT31;63191;39.566;2.654;2023-04-03T10:02:44;20.94;47.72
74661;SHT31;63191;39.566;2.654;2023-04-03T10:05:36;20.80;48.58
74661;SHT31;63191;39.566;2.654;2023-04-03T10:10:42;20.57;49.38
74661;SHT31;63191;39.566;2.654;2023-04-03T10:15:50;20.39;49.62
74661;SHT31;63191;39.566;2.654;2023-04-03T10:27:17;20.78;48.65
74661;SHT31;63191;39.566;2.654;2023-04-03T10:38:42;21.02;48.10
74661;SHT31;63191;39.566;2.654;2023-04-03T10:53:42;20.47;48.73
74661;SHT31;63191;39.566;2.654;2023-04-03T10:56:33;20.42;49.25
74661;SHT31;63191;39.566;2.654;2023-04-03T11:02:51;20.41;49.87
74661;SHT31;63191;39.566;2.654;2023-04-03T11:08:15;21.59;46.65
74661;SHT31;63191;39.566;2.654;2023-04-03T11:10:44;22.16;45.86
74661;SHT31;63191;39.566;2.654;2023-04-03T11:13:22;22.40;45.46
74661;SHT31;63191;39.566;2.654;2023-04-03T11:15:53;22.03;45.53
74661;SHT31;63191;39.566;2.654;2023-04-03T11:18:22;21.59;46.91
74661;SHT31;63191;39.566;2.654;2023-04-03T11:21:14;21.44;47.75
74661;SHT31;63191;39.566;2.654;2023-04-03T11:23:46;21.54;48.12
74661;SHT31;63191;39.566;2.654;2023-04-03T11:26:13;21.55;47.43
74661;SHT31;63191;39.566;2.654;2023-04-03T11:28:43;21.57;47.83
74661;SHT31;63191;39.566;2.654;2023-04-03T11:31:12;21.63;47.50
74661;SHT31;63191;39.566;2.654;2023-04-03T11:33:55;21.72;47.40
74661;SHT31;63191;39.566;2.654;2023-04-03T11:36:50;21.79;47.06
74661;SHT31;63191;39.566;2.654;2023-04-03T11:39:34;21.86;47.41
74661;SHT31;63191;39.566;2.654;2023-04-03T11:42:24;21.90;47.40
74661;SHT31;63191;39.566;2.654;2023-04-03T11:48:04;21.87;47.42
74661;SHT31;63191;39.566;2.654;2023-04-03T11:50:53;22.02;47.30
74661;SHT31;63191;39.566;2.654;2023-04-03T12:00:55;21.62;48.56
74661;SHT31;63191;39.566;2.654;2023-04-03T12:05:50;22.07;48.47
74661;SHT31;63191;39.566;2.654;2023-04-03T12:13:42;20.72;50.22
74661;SHT31;63191;39.566;2.654;2023-04-03T12:27:01;19.33;54.79
74661;SHT31;63191;39.566;2.654;2023-04-03T12:29:34;20.67;53.13
74661;SHT31;63191;39.566;2.654;2023-04-03T12:41:18;30.16;33.77
74661;SHT31;63191;39.566;2.654;2023-04-03T12:50:16;32.20;30.99
74661;SHT31;63191;39.566;2.654;2023-04-03T12:52:47;32.61;30.19
74661;SHT31;63191;39.566;2.654;2023-04-03T12:55:26;33.39;29.43
74661;SHT31;63191;39.566;2.654;2023-04-03T12:57:52;34.21;28.59
74661;SHT31;63191;39.566;2.654;2023-04-03T13:00:22;34.36;27.83
74661;SHT31;63191;39.566;2.654;2023-04-03T13:02:58;35.24;27.10
74661;SHT31;63191;39.566;2.654;2023-04-03T13:05:27;36.26;26.78
74661;SHT31;63191;39.566;2.654;2023-04-03T13:08:02;37.24;25.34
74661;SHT31;63191;39.566;2.654;2023-04-03T13:10:31;36.67;24.48
74661;SHT31;63191;39.566;2.654;2023-04-03T13:13:13;35.93;25.18
74661;SHT31;63191;39.566;2.654;2023-04-03T13:15:44;35.35;25.41
74661;SHT31;63191;39.566;2.654;2023-04-03T13:20:48;32.09;28.57
74661;SHT31;63191;39.566;2.654;2023-04-03T13:23:15;32.70;28.76
74661;SHT31;63191;39.566;2.654;2023-04-03T13:25:45;32.62;28.03
74661;SHT31;63191;39.566;2.654;2023-04-03T13:28:15;32.00;28.17
74661;SHT31;63191;39.566;2.654;2023-04-03T13:30:59;30.28;29.92
74661;SHT31;63191;39.566;2.654;2023-04-03T13:33:32;28.38;33.05
74661;SHT31;63191;39.566;2.654;2023-04-03T13:36:07;26.81;35.51
74661;SHT31;63191;39.566;2.654;2023-04-03T13:38:45;25.24;37.89
74661;SHT31;63191;39.566;2.654;2023-04-03T13:41:25;23.89;40.05
74661;SHT31;63191;39.566;2.654;2023-04-03T13:44:16;22.72;42.50
74661;SHT31;63191;39.566;2.654;2023-04-03T13:51:51;20.41;47.08
74661;SHT31;63191;39.566;2.654;2023-04-03T13:54:19;20.03;47.57
74661;SHT31;63191;39.566;2.654;2023-04-03T13:56:55;19.78;48.64
74661;SHT31;63191;39.566;2.654;2023-04-03T13:59:24;19.58;49.04
74661;SHT31;63191;39.566;2.654;2023-04-03T14:04:29;19.22;48.91
74661;SHT31;63191;39.566;2.654;2023-04-03T14:07:09;19.12;48.50
74661;SHT31;63191;39.566;2.654;2023-04-03T14:09:37;19.02;50.05
74661;SHT31;63191;39.566;2.654;2023-04-03T14:12:07;18.80;50.42
74661;SHT31;63191;39.566;2.654;2023-04-03T14:14:39;18.51;50.82
74661;SHT31;63191;39.566;2.654;2023-04-03T14:17:16;18.29;51.77
74661;SHT31;63191;39.566;2.654;2023-04-03T14:19:46;18.10;52.12
74661;SHT31;63191;39.566;2.654;2023-04-03T14:22:22;17.97;51.71
74661;SHT31;63191;39.566;2.654;2023-04-03T14:24:53;17.77;52.89
74661;SHT31;63191;39.566;2.654;2023-04-03T14:27:22;17.55;54.44
74661;SHT31;63191;39.566;2.654;2023-04-03T14:29:52;17.22;56.03
74661;SHT31;63191;39.566;2.654;2023-04-03T14:32:20;16.86;57.09
74661;SHT31;63191;39.566;2.654;2023-04-03T14:34:48;16.47;58.40
74661;SHT31;63191;39.566;2.654;2023-04-03T14:37:20;16.14;59.83
74661;SHT31;63191;39.566;2.654;2023-04-03T14:39:49;15.90;60.94
74661;SHT31;63191;39.566;2.654;2023-04-03T14:42:21;15.67;61.76
74661;SHT31;63191;39.566;2.654;2023-04-03T14:44:53;15.42;62.44
74661;SHT31;63191;39.566;2.654;2023-04-03T14:47:23;15.20;64.14
74661;SHT31;63191;39.566;2.654;2023-04-03T14:49:52;14.92;66.05
74661;SHT31;63191;39.566;2.654;2023-04-03T14:52:23;14.71;67.77
74661;SHT31;63191;39.566;2.654;2023-04-03T14:54:56;14.69;68.98
74661;SHT31;63191;39.566;2.654;2023-04-03T14:57:23;14.72;70.55
74661;SHT31;63191;39.566;2.654;2023-04-03T14:59:51;14.79;71.29
74661;SHT31;63191;39.566;2.654;2023-04-03T15:05:02;14.86;70.33
74661;SHT31;63191;39.566;2.654;2023-04-03T15:07:32;14.88;69.98
74661;SHT31;63191;39.566;2.654;2023-04-03T15:10:16;14.90;69.28
74661;SHT31;63191;39.566;2.654;2023-04-03T15:12:48;14.88;67.89
74661;SHT31;63191;39.566;2.654;2023-04-03T15:15:16;14.87;67.23
74661;SHT31;63191;39.566;2.654;2023-04-03T15:17:44;14.88;66.93
74661;SHT31;63191;39.566;2.654;2023-04-03T15:20:16;14.91;66.66
74661;SHT31;63191;39.566;2.654;2023-04-03T15:22:45;15.07;67.10
74661;SHT31;63191;39.566;2.654;2023-04-03T15:25:12;15.21;66.27
74661;SHT31;63191;39.566;2.654;2023-04-03T15:27:38;15.33;66.14
74661;SHT31;63191;39.566;2.654;2023-04-03T15:30:05;15.46;65.61
74661;SHT31;63191;39.566;2.654;2023-04-03T15:32:34;15.58;64.92
74661;SHT31;63191;39.566;2.654;2023-04-03T15:35:00;15.72;64.10
74661;SHT31;63191;39.566;2.654;2023-04-03T15:37:27;15.87;63.57
74661;SHT31;63191;39.566;2.654;2023-04-03T15:39:53;16.05;63.60
74661;SHT31;63191;39.566;2.654;2023-04-03T15:42:19;16.24;64.10
74661;SHT31;63191;39.566;2.654;2023-04-03T15:44:45;16.38;63.13
74661;SHT31;63191;39.566;2.654;2023-04-03T15:47:11;16.46;62.40
74661;SHT31;63191;39.566;2.654;2023-04-03T15:49:37;16.52;61.58
74661;SHT31;63191;39.566;2.654;2023-04-03T15:52:04;16.51;61.11
74661;SHT31;63191;39.566;2.654;2023-04-03T15:54:30;16.45;60.71
74661;SHT31;63191;39.566;2.654;2023-04-03T15:56:56;16.35;60.75
74661;SHT31;63191;39.566;2.654;2023-04-03T15:59:23;16.33;60.74
74661;SHT31;63191;39.566;2.654;2023-04-03T16:01:50;16.24;60.75
74661;SHT31;63191;39.566;2.654;2023-04-03T16:04:17;16.15;60.72
74661;SHT31;63191;39.566;2.654;2023-04-03T16:06:45;16.12;60.40
74661;SHT31;63191;39.566;2.654;2023-04-03T16:09:11;16.14;60.16
74661;SHT31;63191;39.566;2.654;2023-04-03T16:11:38;16.14;59.64
74661;SHT31;63191;39.566;2.654;2023-04-03T16:14:07;16.16;59.39
74661;SHT31;63191;39.566;2.654;2023-04-03T16:16:34;16.15;58.90
74661;SHT31;63191;39.566;2.654;2023-04-03T16:19:01;16.16;58.54
74661;SHT31;63191;39.566;2.654;2023-04-03T16:21:27;16.14;57.80
74661;SHT31;63191;39.566;2.654;2023-04-03T16:23:54;16.17;58.29
74661;SHT31;63191;39.566;2.654;2023-04-03T16:26:23;16.23;58.22
74661;SHT31;63191;39.566;2.654;2023-04-03T16:28:49;16.29;57.74
74661;SHT31;63191;39.566;2.654;2023-04-03T16:31:15;16.32;57.15
74661;SHT31;63191;39.566;2.654;2023-04-03T16:33:41;16.33;57.09
74661;SHT31;63191;39.566;2.654;2023-04-03T16:36:06;16.37;57.29
74661;SHT31;63191;39.566;2.654;2023-04-03T16:38:32;16.36;56.35
74661;SHT31;63191;39.566;2.654;2023-04-03T16:40:58;16.32;56.50
74661;SHT31;63191;39.566;2.654;2023-04-03T16:43:30;16.34;57.05
74661;SHT31;63191;39.566;2.654;2023-04-03T16:46:13;16.31;56.37
74661;SHT31;63191;39.566;2.654;2023-04-03T16:48:39;16.29;56.56
74661;SHT31;63191;39.566;2.654;2023-04-03T16:51:12;16.24;55.77
74661;SHT31;63191;39.566;2.654;2023-04-03T16:53:39;16.16;55.59
74661;SHT31;63191;39.566;2.654;2023-04-03T16:56:11;16.08;56.03
74661;SHT31;63191;39.566;2.654;2023-04-03T16:58:41;16.06;56.37
74661;SHT31;63191;39.566;2.654;2023-04-03T17:01:11;16.02;56.30
74661;SHT31;63191;39.566;2.654;2023-04-03T17:03:42;16.00;56.53
74661;SHT31;63191;39.566;2.654;2023-04-03T17:06:22;16.00;56.81
74661;SHT31;63191;39.566;2.654;2023-04-03T17:08:49;16.00;57.01
74661;SHT31;63191;39.566;2.654;2023-04-03T17:11:37;15.98;56.90
74661;SHT31;63191;39.566;2.654;2023-04-03T17:14:11;15.97;57.06
74661;SHT31;63191;39.566;2.654;2023-04-03T17:16:39;15.97;57.29
74661;SHT31;63191;39.566;2.654;2023-04-03T17:19:11;15.94;56.94
74661;SHT31;63191;39.566;2.654;2023-04-03T17:21:37;15.89;56.71
74661;SHT31;63191;39.566;2.654;2023-04-03T17:26:28;15.76;56.83
74661;SHT31;63191;39.566;2.654;2023-04-03T17:31:25;15.66;57.47
74661;SHT31;63191;39.566;2.654;2023-04-03T17:33:57;15.61;57.65
74661;SHT31;63191;39.566;2.654;2023-04-03T17:36:27;15.55;57.56
74661;SHT31;63191;39.566;2.654;2023-04-03T17:38:58;15.50;57.85
74661;SHT31;63191;39.566;2.654;2023-04-03T17:41:27;15.43;58.13
74661;SHT31;63191;39.566;2.654;2023-04-03T17:43:53;15.37;58.32
74661;SHT31;63191;39.566;2.654;2023-04-03T17:46:23;15.30;58.51
74661;SHT31;63191;39.566;2.654;2023-04-03T17:48:50;15.22;58.69
74661;SHT31;63191;39.566;2.654;2023-04-03T17:51:18;15.14;59.06
74661;SHT31;63191;39.566;2.654;2023-04-03T17:53:49;15.08;59.30
74661;SHT31;63191;39.566;2.654;2023-04-03T17:56:16;15.00;59.54